Time;durP1;ratioP1;P1;durP2;ratioP2;P2;SDS_P1;SDS_P2;PMS_P1;PMS_P2;Temp;Humidity;BMP_temperature;BMP_pressure;BME280_temperature;BME280_humidity;BME280_pressure;Samples;Min_cycle;Max_cycle;Signal;HPM_P1;HPM_P2
2023/03/05 00:02:35;;;;;;;12.53;7.73;;;4.70;99.90;;;;;;2614935;54;20130;-73
2023/03/05 00:08:23;;;;;;;8.97;8.13;;;4.70;99.90;;;;;;2613381;54;20235;-72
2023/03/05 00:14:12;;;;;;;8.93;7.27;;;4.60;99.90;;;;;;2614780;54;20126;-72
2023/03/05 00:23:28;;;;;;;9.47;7.87;;;4.50;99.90;;;;;;2613067;54;20389;-73
2023/03/05 00:29:18;;;;;;;10.83;8.27;;;4.50;99.90;;;;;;2613960;54;20402;-72
2023/03/05 00:35:06;;;;;;;9.60;7.10;;;4.40;99.90;;;;;;2614629;54;20398;-72
2023/03/05 00:40:54;;;;;;;18.40;6.90;;;4.40;99.90;;;;;;2613616;54;21160;-73
2023/03/05 00:46:42;;;;;;;10.03;6.07;;;4.30;99.90;;;;;;2613749;54;20142;-71
2023/03/05 00:52:29;;;;;;;8.83;6.00;;;4.40;99.90;;;;;;2615087;54;20160;-72
2023/03/05 00:58:17;;;;;;;7.90;4.80;;;4.30;99.90;;;;;;2613538;54;20154;-72
2023/03/05 01:04:05;;;;;;;9.33;6.50;;;4.40;99.90;;;;;;2614134;54;20130;-73
2023/03/05 01:09:53;;;;;;;13.30;7.40;;;4.30;99.90;;;;;;2613033;54;20223;-72
2023/03/05 01:15:40;;;;;;;10.30;6.10;;;4.30;99.90;;;;;;2614897;39;20527;-72
2023/03/05 01:18:57;;;;;;;9.40;6.43;;;4.30;99.90;;;;;;2612388;54;20478;-72
2023/03/05 01:21:23;;;;;;;14.73;5.20;;;4.30;99.90;;;;;;2613188;47;20162;-72
2023/03/05 01:27:11;;;;;;;8.07;6.10;;;4.30;99.90;;;;;;2613906;39;20559;-72
2023/03/05 01:32:59;;;;;;;7.27;5.40;;;4.30;99.90;;;;;;2613986;54;20122;-72
2023/03/05 01:38:47;;;;;;;14.40;5.60;;;4.20;99.90;;;;;;2614778;54;20126;-72
2023/03/05 01:44:34;;;;;;;7.77;6.20;;;4.20;99.90;;;;;;2613712;54;20382;-72
2023/03/05 01:50:25;;;;;;;8.30;6.30;;;4.10;99.90;;;;;;2613045;54;20689;-73
2023/03/05 01:56:12;;;;;;;11.50;6.33;;;4.10;99.90;;;;;;2613790;54;20387;-72
2023/03/05 02:02:01;;;;;;;7.50;5.53;;;4.10;99.90;;;;;;2614293;54;20247;-71
2023/03/05 02:07:49;;;;;;;6.87;5.30;;;4.00;99.90;;;;;;2614023;54;20382;-71
2023/03/05 02:13:39;;;;;;;10.03;5.40;;;4.00;99.90;;;;;;2612007;54;20134;-72
2023/03/05 02:23:31;;;;;;;6.60;4.77;;;3.90;99.90;;;;;;2615145;54;20391;-71
2023/03/05 02:29:20;;;;;;;7.17;4.37;;;3.90;99.90;;;;;;2613370;54;20378;-72
2023/03/05 02:35:08;;;;;;;13.30;6.40;;;3.90;99.90;;;;;;2614956;54;20394;-71
2023/03/05 02:40:56;;;;;;;4.57;4.20;;;3.90;99.90;;;;;;2614438;54;20381;-71
2023/03/05 02:46:44;;;;;;;5.43;4.93;;;3.80;99.90;;;;;;2614121;54;20122;-71
2023/03/05 02:52:31;;;;;;;10.83;5.13;;;3.90;99.90;;;;;;2615295;54;20756;-72
2023/03/05 02:58:19;;;;;;;5.77;5.10;;;3.90;99.90;;;;;;2614141;54;20201;-71
2023/03/05 03:04:07;;;;;;;5.53;5.03;;;3.80;99.90;;;;;;2614329;54;20381;-71
2023/03/05 03:09:54;;;;;;;6.80;5.70;;;3.90;99.90;;;;;;2614544;39;20630;-72
2023/03/05 03:15:42;;;;;;;12.13;6.47;;;3.80;99.90;;;;;;2614391;54;20174;-72
2023/03/05 03:18:58;;;;;;;12.40;5.10;;;3.80;99.90;;;;;;2613326;54;20419;-72
2023/03/05 03:21:25;;;;;;;5.40;4.90;;;3.70;99.90;;;;;;2614109;39;20502;-72
2023/03/05 03:27:13;;;;;;;6.50;4.73;;;3.70;99.90;;;;;;2614727;54;20486;-71
2023/03/05 03:33:00;;;;;;;12.83;5.10;;;3.70;99.90;;;;;;2614784;39;20779;-72
2023/03/05 03:38:48;;;;;;;8.77;4.87;;;3.70;99.90;;;;;;2614210;54;20147;-71
2023/03/05 03:44:36;;;;;;;7.83;5.13;;;3.60;99.90;;;;;;2614126;54;20174;-71
2023/03/05 03:50:24;;;;;;;10.03;4.93;;;3.70;99.90;;;;;;2612602;54;20158;-69
2023/03/05 03:56:12;;;;;;;9.87;6.30;;;3.70;99.90;;;;;;2613495;54;20362;-68
2023/03/05 04:02:00;;;;;;;10.10;5.77;;;3.60;99.90;;;;;;2614539;54;20718;-69
2023/03/05 04:07:48;;;;;;;9.60;5.73;;;3.60;99.90;;;;;;2614268;54;20127;-69
2023/03/05 04:13:35;;;;;;;12.30;6.77;;;3.60;99.90;;;;;;2614447;54;20133;-68
2023/03/05 04:23:29;;;;;;;13.70;6.13;;;3.70;99.90;;;;;;2612466;54;20978;-68
2023/03/05 04:29:17;;;;;;;5.90;5.10;;;3.70;99.90;;;;;;2613425;54;20427;-68
2023/03/05 04:35:05;;;;;;;8.70;4.70;;;3.70;99.90;;;;;;2613634;54;20217;-68
2023/03/05 04:40:52;;;;;;;6.07;4.47;;;3.70;99.90;;;;;;2613033;54;20410;-68
2023/03/05 04:46:40;;;;;;;6.17;5.57;;;3.60;99.90;;;;;;2614115;54;20127;-69
2023/03/05 04:52:28;;;;;;;7.93;4.80;;;3.60;99.90;;;;;;2613565;54;20126;-68
2023/03/05 04:58:16;;;;;;;6.73;4.50;;;3.50;99.90;;;;;;2613327;54;20564;-69
2023/03/05 05:04:03;;;;;;;9.23;6.03;;;3.60;99.90;;;;;;2613856;54;20150;-67
2023/03/05 05:09:51;;;;;;;10.10;5.70;;;3.50;99.90;;;;;;2612714;54;20648;-71
2023/03/05 05:15:39;;;;;;;8.00;5.70;;;3.50;99.90;;;;;;2613357;54;20170;-72
2023/03/05 05:18:58;;;;;;;10.40;5.97;;;3.50;99.90;;;;;;2614128;54;20394;-72
2023/03/05 05:21:23;;;;;;;15.70;6.83;;;3.50;99.90;;;;;;2613067;54;20428;-71
2023/03/05 05:27:11;;;;;;;12.80;7.50;;;3.50;99.90;;;;;;2613607;54;20130;-72
2023/03/05 05:32:58;;;;;;;10.33;7.63;;;3.40;99.90;;;;;;2614161;54;20251;-72
2023/03/05 05:38:46;;;;;;;17.70;10.27;;;3.50;99.90;;;;;;2613134;54;20247;-72
2023/03/05 05:44:34;;;;;;;18.83;9.40;;;3.50;99.90;;;;;;2613963;54;20154;-72
2023/03/05 05:50:22;;;;;;;13.37;8.47;;;3.50;99.90;;;;;;2613493;54;20738;-72
2023/03/05 05:56:12;;;;;;;14.33;8.90;;;3.50;99.90;;;;;;2612482;54;20960;-72
2023/03/05 06:02:00;;;;;;;13.17;7.80;;;3.50;99.90;;;;;;2612206;54;20387;-72
2023/03/05 06:07:48;;;;;;;15.43;7.90;;;3.50;99.90;;;;;;2613912;54;20251;-72
2023/03/05 06:13:35;;;;;;;11.00;8.10;;;3.60;99.90;;;;;;2613667;54;20134;-72
2023/03/05 06:23:32;;;;;;;12.57;7.20;;;3.60;99.90;;;;;;2613778;46;20415;-72
2023/03/05 06:29:19;;;;;;;13.87;8.03;;;3.60;99.90;;;;;;2613865;54;20363;-72
2023/03/05 06:35:07;;;;;;;10.77;7.03;;;3.60;99.90;;;;;;2613503;47;20157;-72
2023/03/05 06:41:00;;;;;;;11.40;8.20;;;3.60;99.90;;;;;;2613040;54;20420;-72
2023/03/05 06:46:47;;;;;;;14.90;7.70;;;3.60;99.90;;;;;;2614220;54;20441;-72
2023/03/05 06:52:37;;;;;;;13.80;7.00;;;3.70;99.90;;;;;;2613896;54;20146;-71
2023/03/05 06:58:25;;;;;;;8.30;7.50;;;3.70;99.90;;;;;;2613632;54;20523;-73
2023/03/05 07:04:14;;;;;;;12.07;7.80;;;3.80;99.90;;;;;;2613565;54;20753;-71
2023/03/05 07:10:02;;;;;;;13.93;8.20;;;3.90;99.90;;;;;;2614740;31;20761;-72
2023/03/05 07:15:50;;;;;;;11.43;6.90;;;3.90;99.90;;;;;;2615104;54;20515;-72
2023/03/05 07:19:01;;;;;;;15.43;7.40;;;4.00;99.90;;;;;;2612931;54;20409;-73
2023/03/05 07:21:29;;;;;;;13.60;7.90;;;4.00;99.90;;;;;;2613882;54;20171;-72
2023/03/05 07:27:17;;;;;;;12.67;7.30;;;4.00;99.90;;;;;;2614655;54;20386;-73
2023/03/05 07:33:06;;;;;;;22.30;8.50;;;4.00;99.90;;;;;;2614759;54;20126;-75
2023/03/05 07:38:55;;;;;;;10.40;7.80;;;4.10;99.90;;;;;;2611296;54;20407;-72
2023/03/05 07:44:43;;;;;;;9.57;7.50;;;4.20;99.90;;;;;;2611748;54;20902;-72
2023/03/05 07:50:32;;;;;;;15.30;7.07;;;4.30;99.90;;;;;;2612573;54;20171;-71
2023/03/05 08:02:46;;;;;;;11.30;9.50;;;4.50;99.90;;;;;;2609934;54;20960;-71
2023/03/05 08:08:35;;;;;;;24.03;12.90;;;4.80;99.90;;;;;;2610750;54;20378;-72
2023/03/05 08:14:22;;;;;;;11.77;9.27;;;4.60;99.90;;;;;;2610305;54;20495;-73
2023/03/05 08:23:33;;;;;;;5.53;4.97;;;4.30;99.90;;;;;;2611428;54;20389;-74
2023/03/05 08:29:21;;;;;;;9.47;6.30;;;3.90;99.90;;;;;;2610028;54;20996;-74
2023/03/05 08:35:08;;;;;;;13.50;7.50;;;3.80;99.90;;;;;;2611144;39;20553;-74
2023/03/05 08:40:56;;;;;;;10.43;7.97;;;4.10;99.90;;;;;;2609838;39;20426;-74
2023/03/05 08:46:45;;;;;;;10.93;8.17;;;4.00;99.90;;;;;;2613505;54;20134;-75
2023/03/05 08:52:34;;;;;;;12.43;9.50;;;3.80;99.90;;;;;;2609500;54;20354;-74
2023/03/05 08:58:22;;;;;;;5.30;4.80;;;3.60;99.90;;;;;;2611466;54;20134;-74
2023/03/05 09:04:09;;;;;;;12.27;8.37;;;3.60;99.90;;;;;;2610693;54;20409;-74
2023/03/05 09:09:57;;;;;;;12.73;8.37;;;3.90;99.90;;;;;;2611184;54;20158;-74
2023/03/05 09:15:44;;;;;;;14.97;9.03;;;3.80;99.90;;;;;;2611319;54;20154;-74
2023/03/05 09:19:01;;;;;;;20.33;9.27;;;3.90;99.90;;;;;;2609591;54;20431;-74
2023/03/05 09:21:27;;;;;;;12.20;9.30;;;3.80;99.90;;;;;;2609286;51;20162;-74
2023/03/05 09:27:14;;;;;;;14.23;9.23;;;3.80;99.90;;;;;;2610400;54;20138;-74
2023/03/05 09:33:03;;;;;;;18.30;10.97;;;3.90;99.90;;;;;;2611985;54;20139;-73
2023/03/05 09:38:51;;;;;;;17.63;11.10;;;4.20;99.90;;;;;;2610303;54;20350;-74
2023/03/05 09:51:24;;;;;;;26.30;12.50;;;4.50;99.90;;;;;;2611062;54;20395;-75
2023/03/05 09:57:21;;;;;;;13.03;9.90;;;4.70;99.90;;;;;;2611692;54;20374;-74
2023/03/05 10:03:16;;;;;;;18.67;11.13;;;5.10;99.90;;;;;;2610836;54;20396;-73
2023/03/05 10:09:10;;;;;;;16.47;11.80;;;5.40;99.90;;;;;;2610512;54;20395;-74
2023/03/05 10:14:59;;;;;;;16.13;11.07;;;6.00;99.90;;;;;;2610566;54;20534;-74
2023/03/05 10:31:14;;;;;;;15.30;10.40;;;5.70;99.90;;;;;;2611603;54;20884;-74
2023/03/05 10:41:36;;;;;;;12.10;8.73;;;5.30;99.90;;;;;;2609469;54;20395;-74
2023/03/05 10:53:55;;;;;;;8.27;7.50;;;4.70;99.90;;;;;;2612295;39;20901;-73
2023/03/05 10:59:56;;;;;;;22.60;8.80;;;4.50;99.90;;;;;;2608524;54;20367;-74
2023/03/05 11:06:03;;;;;;;8.37;7.00;;;4.50;99.90;;;;;;2608834;54;20416;-73
2023/03/05 11:12:09;;;;;;;6.80;6.13;;;4.50;99.90;;;;;;2608359;39;20627;-73
2023/03/05 11:18:07;;;;;;;12.53;6.90;;;4.90;99.90;;;;;;2611687;54;20444;-73
2023/03/05 11:30:35;;;;;;;7.70;6.57;;;5.30;99.90;;;;;;2611600;54;20484;-73
2023/03/05 11:36:28;;;;;;;5.03;4.10;;;5.30;99.90;;;;;;2610011;54;20382;-73
2023/03/05 11:42:23;;;;;;;4.87;3.60;;;5.20;99.90;;;;;;2610768;54;20387;-74
2023/03/05 12:00:45;;;;;;;8.37;5.83;;;6.10;95.90;;;;;;2605288;54;21020;-73
2023/03/05 12:24:04;;;;;;;10.13;5.80;;;6.80;47.90;;;;;;2612197;54;20418;-75
2023/03/05 12:29:53;;;;;;;9.13;6.70;;;7.60;36.90;;;;;;2612780;54;20395;-74
2023/03/05 12:35:41;;;;;;;11.43;10.33;;;7.60;29.80;;;;;;2612899;46;20438;-73
2023/03/05 12:41:28;;;;;;;10.80;9.80;;;7.30;44.80;;;;;;2614217;54;20123;-75
2023/03/05 12:47:18;;;;;;;9.27;8.47;;;7.00;37.60;;;;;;2613367;54;20129;-75
2023/03/05 12:53:05;;;;;;;8.77;7.97;;;7.30;36.30;;;;;;2612224;54;20522;-74
2023/03/05 12:58:57;;;;;;;9.43;8.27;;;8.00;22.00;;;;;;2614409;31;20622;-74
2023/03/05 13:04:47;;;;;;;8.23;7.53;;;8.80;20.20;;;;;;2613678;54;20454;-74
2023/03/05 13:10:34;;;;;;;8.90;8.30;;;9.10;18.30;;;;;;2610131;54;20379;-73
2023/03/05 13:16:28;;;;;;;9.03;8.43;;;8.20;13.10;;;;;;2613746;54;20146;-74
2023/03/05 13:19:34;;;;;;;10.90;9.63;;;8.00;17.30;;;;;;2613109;54;20428;-73
2023/03/05 13:22:02;;;;;;;9.37;8.67;;;8.40;14.10;;;;;;2614455;54;20427;-73
2023/03/05 13:27:50;;;;;;;10.70;8.90;;;7.80;14.50;;;;;;2613789;54;20555;-74
2023/03/05 13:33:38;;;;;;;8.90;8.30;;;7.90;19.40;;;;;;2608405;54;20202;-73
2023/03/05 13:39:33;;;;;;;8.50;8.00;;;8.00;12.60;;;;;;2613293;54;20226;-73
2023/03/05 13:45:25;;;;;;;8.60;8.00;;;7.70;10.40;;;;;;2614083;54;20395;-73
2023/03/05 13:51:13;;;;;;;11.37;10.47;;;8.20;11.60;;;;;;2612186;54;20427;-73
2023/03/05 13:57:04;;;;;;;8.40;7.90;;;7.50;11.70;;;;;;2613020;39;20221;-74
2023/03/05 14:02:53;;;;;;;8.60;7.80;;;7.40;13.60;;;;;;2613382;39;20789;-74
2023/03/05 14:08:41;;;;;;;8.73;8.23;;;7.50;15.30;;;;;;2614063;54;20507;-73
2023/03/05 14:14:33;;;;;;;10.57;9.87;;;7.50;11.60;;;;;;2612589;54;20411;-73
2023/03/05 14:30:35;;;;;;;14.27;12.97;;;7.40;17.60;;;;;;2612439;54;20997;-74
2023/03/05 14:36:26;;;;;;;14.87;13.50;;;7.50;17.20;;;;;;2612348;54;20127;-74
2023/03/05 14:42:35;;;;;;;16.00;14.63;;;7.90;16.60;;;;;;2613332;46;20414;-73
2023/03/05 14:45:38;;;;;;;12.83;11.63;;;8.20;11.20;;;;;;2613346;54;20982;-74
2023/03/05 14:48:06;;;;;;;15.10;13.80;;;7.80;11.70;;;;;;2613117;54;20423;-73
2023/03/05 14:53:54;;;;;;;11.83;11.03;;;7.10;12.00;;;;;;2613112;54;20519;-73
2023/03/05 14:59:42;;;;;;;14.30;12.87;;;7.00;12.60;;;;;;2612990;54;20387;-73
2023/03/05 15:05:29;;;;;;;14.37;13.17;;;7.00;14.90;;;;;;2612347;54;20131;-73
2023/03/05 15:11:17;;;;;;;13.70;12.40;;;7.10;13.50;;;;;;2614247;54;20149;-73
2023/03/05 15:17:05;;;;;;;15.90;14.50;;;7.20;13.10;;;;;;2613580;54;20698;-72
2023/03/05 15:26:18;;;;;;;15.47;14.07;;;7.70;13.50;;;;;;2614226;39;20762;-73
2023/03/05 15:32:06;;;;;;;14.30;13.00;;;8.10;11.60;;;;;;2613930;54;20387;-73
2023/03/05 15:37:54;;;;;;;15.93;14.23;;;7.50;11.50;;;;;;2612218;54;20981;-73
2023/03/05 15:43:42;;;;;;;14.93;13.60;;;6.80;11.20;;;;;;2610855;54;20130;-73
2023/03/05 15:49:29;;;;;;;14.27;12.87;;;6.80;11.70;;;;;;2611390;54;20266;-74
2023/03/05 15:55:17;;;;;;;13.37;12.13;;;6.60;11.90;;;;;;2612976;39;20505;-73
2023/03/05 16:01:05;;;;;;;15.40;12.90;;;6.40;8.90;;;;;;2611068;54;20957;-73
2023/03/05 16:06:54;;;;;;;17.67;12.70;;;6.60;13.20;;;;;;2610472;54;20158;-76
2023/03/05 16:12:45;;;;;;;10.63;9.73;;;6.50;15.10;;;;;;2610436;54;20544;-74
2023/03/05 16:18:35;;;;;;;12.10;11.20;;;6.50;17.90;;;;;;2610536;54;21068;-73
2023/03/05 16:24:32;;;;;;;12.33;11.23;;;6.40;17.00;;;;;;2605083;54;20379;-73
2023/03/05 16:30:19;;;;;;;12.77;11.77;;;6.20;18.40;;;;;;2605393;54;20428;-74
2023/03/05 16:36:13;;;;;;;11.83;10.73;;;6.10;23.60;;;;;;2609424;54;20495;-73
2023/03/05 16:45:21;;;;;;;13.83;12.53;;;5.90;25.80;;;;;;2607016;54;20379;-73
2023/03/05 16:51:11;;;;;;;13.43;11.97;;;5.90;28.50;;;;;;2608936;46;20154;-73
2023/03/05 16:56:58;;;;;;;11.60;10.70;;;5.80;27.90;;;;;;2608853;39;20875;-75
2023/03/05 17:02:45;;;;;;;12.90;11.10;;;5.80;27.70;;;;;;2609836;54;20246;-74
2023/03/05 17:08:33;;;;;;;15.93;14.33;;;5.80;32.10;;;;;;2610884;54;20157;-74
2023/03/05 17:14:21;;;;;;;12.30;11.10;;;5.70;37.30;;;;;;2608641;54;20351;-73
2023/03/05 17:20:09;;;;;;;12.00;10.80;;;5.70;34.50;;;;;;2610522;54;20183;-74
2023/03/05 17:25:57;;;;;;;10.73;9.90;;;5.60;36.40;;;;;;2610817;54;20350;-74
2023/03/05 17:31:47;;;;;;;9.00;8.40;;;5.60;43.00;;;;;;2609928;54;20151;-74
2023/03/05 17:37:35;;;;;;;12.80;11.60;;;5.50;51.60;;;;;;2610441;54;20399;-73
2023/03/05 17:43:23;;;;;;;10.60;9.70;;;5.40;67.60;;;;;;2610664;54;20122;-73
2023/03/05 17:49:11;;;;;;;10.87;9.90;;;5.30;73.40;;;;;;2609412;39;20209;-74
2023/03/05 17:54:59;;;;;;;12.90;9.63;;;5.20;77.90;;;;;;2610156;54;20703;-73
2023/03/05 18:00:47;;;;;;;11.27;10.27;;;5.20;83.90;;;;;;2609918;54;20133;-74
2023/03/05 18:06:34;;;;;;;11.13;10.13;;;5.10;94.80;;;;;;2611119;54;20157;-74
2023/03/05 18:12:22;;;;;;;12.37;10.60;;;5.10;99.90;;;;;;2610488;54;20134;-75
2023/03/05 18:18:10;;;;;;;10.60;9.50;;;4.90;99.90;;;;;;2607831;54;20130;-73
2023/03/05 18:23:58;;;;;;;10.87;9.77;;;4.90;99.90;;;;;;2610305;54;20182;-74
2023/03/05 18:29:46;;;;;;;11.10;9.47;;;4.70;99.90;;;;;;2610500;54;20790;-73
2023/03/05 18:35:34;;;;;;;10.70;8.90;;;4.70;99.90;;;;;;2612919;54;20155;-72
2023/03/05 18:41:23;;;;;;;9.83;8.93;;;4.70;99.90;;;;;;2612698;54;20374;-73
2023/03/05 18:47:11;;;;;;;10.60;8.63;;;4.80;99.90;;;;;;2611754;54;20423;-73
2023/03/05 18:52:59;;;;;;;13.00;11.10;;;4.80;99.90;;;;;;2611591;54;20143;-74
2023/03/05 18:58:47;;;;;;;12.37;11.10;;;4.70;99.90;;;;;;2613265;54;20275;-73
2023/03/05 19:04:34;;;;;;;12.13;10.50;;;4.60;99.90;;;;;;2613700;54;20151;-74
2023/03/05 19:10:22;;;;;;;13.90;10.57;;;4.60;99.90;;;;;;2611246;54;20139;-75
2023/03/05 19:16:13;;;;;;;20.80;12.30;;;4.60;99.90;;;;;;2613327;54;20374;-73
2023/03/05 19:26:18;;;;;;;18.17;14.90;;;4.60;99.90;;;;;;2612641;54;20435;-74
2023/03/05 19:32:09;;;;;;;12.50;11.17;;;4.60;99.90;;;;;;2613022;54;21066;-73
2023/03/05 19:37:56;;;;;;;12.93;10.87;;;4.60;99.90;;;;;;2613444;54;20400;-73
2023/03/05 19:43:45;;;;;;;12.70;11.33;;;4.60;99.90;;;;;;2612415;54;20131;-73
2023/03/05 19:49:33;;;;;;;12.73;11.43;;;4.60;99.90;;;;;;2614714;54;20495;-74
2023/03/05 19:55:21;;;;;;;15.07;11.60;;;4.60;99.90;;;;;;2612393;54;20151;-73
2023/03/05 20:01:17;;;;;;;14.50;10.33;;;4.50;99.90;;;;;;2612704;54;20167;-74
2023/03/05 20:07:06;;;;;;;11.33;10.13;;;4.50;99.90;;;;;;2610492;54;20400;-73
2023/03/05 20:12:53;;;;;;;15.07;11.13;;;4.50;99.90;;;;;;2611951;54;20444;-74
2023/03/05 20:18:42;;;;;;;13.20;11.67;;;4.50;99.90;;;;;;2609821;54;20892;-73
2023/03/05 20:24:30;;;;;;;14.53;11.50;;;4.50;99.90;;;;;;2606575;54;20960;-73
2023/03/05 20:33:39;;;;;;;12.80;11.30;;;4.50;99.90;;;;;;2613898;39;20858;-73
2023/03/05 20:39:27;;;;;;;13.27;11.90;;;4.40;99.90;;;;;;2609967;54;20166;-74
2023/03/05 20:42:30;;;;;;;14.17;12.23;;;4.40;99.90;;;;;;2611260;54;20416;-74
2023/03/05 20:44:56;;;;;;;13.63;12.10;;;4.40;99.90;;;;;;2610934;47;20167;-73
2023/03/05 20:50:45;;;;;;;17.03;12.53;;;4.40;99.90;;;;;;2608474;54;20141;-74
2023/03/05 20:56:34;;;;;;;14.90;12.83;;;4.40;99.90;;;;;;2611320;54;20370;-74
2023/03/05 21:02:22;;;;;;;17.00;15.20;;;4.40;99.90;;;;;;2608163;46;20425;-73
2023/03/05 21:08:10;;;;;;;14.07;12.53;;;4.30;99.90;;;;;;2611481;54;20403;-73
2023/03/05 21:13:58;;;;;;;15.00;13.50;;;4.30;99.90;;;;;;2613172;54;20171;-73
2023/03/05 21:19:46;;;;;;;14.63;13.13;;;4.30;99.90;;;;;;2611904;54;20367;-74
2023/03/05 21:25:34;;;;;;;13.37;11.60;;;4.40;99.90;;;;;;2612684;39;20834;-74
2023/03/05 21:31:22;;;;;;;15.20;12.20;;;4.50;99.90;;;;;;2613786;39;20813;-73
2023/03/05 21:37:11;;;;;;;14.50;12.03;;;4.50;99.90;;;;;;2611937;54;20387;-73
2023/03/05 21:42:59;;;;;;;19.67;13.40;;;4.50;99.90;;;;;;2611943;54;20394;-73
2023/03/05 21:48:46;;;;;;;18.40;12.17;;;4.50;99.90;;;;;;2613350;54;20133;-74
2023/03/05 21:54:36;;;;;;;18.97;14.33;;;4.40;99.90;;;;;;2613853;54;20142;-73
2023/03/05 22:00:24;;;;;;;17.70;15.50;;;4.40;99.90;;;;;;2612820;54;20450;-73
2023/03/05 22:06:14;;;;;;;18.53;13.63;;;4.40;99.90;;;;;;2611864;54;20399;-73
2023/03/05 22:12:03;;;;;;;17.33;12.93;;;4.40;99.90;;;;;;2613953;54;20396;-77
2023/03/05 22:17:51;;;;;;;20.03;14.30;;;4.30;99.90;;;;;;2614004;54;20394;-74
2023/03/05 22:23:39;;;;;;;17.23;13.97;;;4.20;99.90;;;;;;2614158;54;20134;-74
2023/03/05 22:33:41;;;;;;;20.97;15.60;;;4.30;99.90;;;;;;2614863;54;20430;-73
2023/03/05 22:39:29;;;;;;;20.53;13.87;;;4.20;99.90;;;;;;2612953;54;20430;-73
2023/03/05 22:45:18;;;;;;;24.73;14.80;;;4.20;99.90;;;;;;2614919;54;20127;-73
2023/03/05 22:51:06;;;;;;;22.17;15.97;;;4.20;99.90;;;;;;2614215;54;20383;-73
2023/03/05 22:56:54;;;;;;;17.83;14.60;;;4.10;99.90;;;;;;2613982;39;20833;-73
2023/03/05 23:02:42;;;;;;;19.03;13.37;;;4.00;99.90;;;;;;2613803;39;20445;-73
2023/03/05 23:08:30;;;;;;;16.90;13.17;;;4.00;99.90;;;;;;2613416;54;20423;-73
2023/03/05 23:14:17;;;;;;;15.77;11.27;;;3.90;99.90;;;;;;2613352;39;20541;-73
2023/03/05 23:20:09;;;;;;;15.90;13.60;;;3.90;99.90;;;;;;2614359;46;20165;-73
2023/03/05 23:25:56;;;;;;;19.43;13.43;;;3.80;99.90;;;;;;2614973;54;20905;-73
2023/03/05 23:29:09;;;;;;;22.47;12.30;;;3.80;99.90;;;;;;2613575;54;20400;-72
2023/03/05 23:31:34;;;;;;;15.70;13.00;;;3.80;99.90;;;;;;2613763;54;20700;-73
2023/03/05 23:37:22;;;;;;;15.57;12.00;;;3.70;99.90;;;;;;2614170;54;20118;-73
2023/03/05 23:43:10;;;;;;;16.70;13.30;;;3.80;99.90;;;;;;2614323;54;20662;-72
2023/03/05 23:48:58;;;;;;;23.80;12.47;;;3.80;99.90;;;;;;2612082;54;20993;-72
2023/03/05 23:54:46;;;;;;;18.70;11.67;;;3.80;99.90;;;;;;2612984;39;20534;-72
